Vano — SBNM — position and weather

sailwx.info

Track history (hours):
 
Tides and Currents Weather Stations Pressure Air Temp Water Temp Dewpoint Dewpoint Depression Visibility Wind Speed Wind Dir Waves Ship Positions

Vano

Last reported at 2018-Dec-15 11:00 UTC. Time now 2018-Dec-15 11:03 UTC.
Position N 59°24' E 018°21'.

Length 38 m; draft 2.5 m.

Type: Passenger vessel. MMSI: 265520400.

Date/timePositionNaut miles runAvg speedWind from/ knotsBaromVisibWave heightAir tempDewpointWater temp
2018-Dec-15 11:00N 59°24' E 018°21'0 0.0
2018-Dec-15 10:30N 59°24' E 018°21'0 0.0
2018-Dec-15 10:00N 59°24' E 018°21'0 0.0
2018-Dec-15 09:30N 59°24' E 018°21'0 0.0
2018-Dec-15 09:00N 59°24' E 018°21'0 0.0
2018-Dec-15 08:30N 59°24' E 018°21'0 0.0
2018-Dec-15 08:00N 59°24' E 018°21'0 0.0
2018-Dec-15 07:30N 59°24' E 018°21'0 0.0
2018-Dec-15 07:00N 59°24' E 018°21'0 0.0
2018-Dec-15 06:30N 59°24' E 018°21'0 0.0
2018-Dec-15 06:00N 59°24' E 018°21'0 0.0
2018-Dec-15 05:30N 59°24' E 018°21'0 0.0
2018-Dec-15 05:00N 59°24' E 018°21'0 0.0
2018-Dec-15 04:30N 59°24' E 018°21'0 0.0
2018-Dec-15 04:00N 59°24' E 018°21'0 0.0
2018-Dec-15 03:30N 59°24' E 018°21'0 0.0
2018-Dec-15 03:00N 59°24' E 018°21'0 0.0
2018-Dec-15 02:30N 59°24' E 018°21'0 0.0
2018-Dec-15 02:00N 59°24' E 018°21'0 0.0
2018-Dec-15 01:30N 59°24' E 018°21'0 0.0
2018-Dec-15 01:00N 59°24' E 018°21'0 0.0
2018-Dec-15 00:30N 59°24' E 018°21'0 0.0
2018-Dec-15 00:00N 59°24' E 018°21'0 0.0
2018-Dec-14 23:30N 59°24' E 018°21'0 0.0
2018-Dec-14 23:00N 59°24' E 018°21'0 0.0
2018-Dec-14 22:30N 59°24' E 018°21'0 0.0
2018-Dec-14 21:59N 59°24' E 018°21'0 0.0
2018-Dec-14 21:30N 59°24' E 018°21'0 0.0
2018-Dec-14 21:00N 59°24' E 018°21'0 0.0
2018-Dec-14 20:30N 59°24' E 018°21'0 0.0
2018-Dec-14 20:00N 59°24' E 018°21'0 0.0
2018-Dec-14 19:30N 59°24' E 018°21'0 0.0
2018-Dec-14 19:00N 59°24' E 018°21'0 0.0
2018-Dec-14 18:30N 59°24' E 018°21'0 0.0
2018-Dec-14 18:00N 59°24' E 018°21'0 0.0
2018-Dec-14 17:30N 59°24' E 018°21'0 0.0
2018-Dec-14 17:00N 59°24' E 018°21'0 0.0
2018-Dec-14 16:30N 59°24' E 018°21'0 0.0
2018-Dec-14 16:00N 59°24' E 018°21'0 0.0
2018-Dec-14 15:30N 59°24' E 018°21'0 0.0
2018-Dec-14 15:00N 59°24' E 018°21'0 0.0
2018-Dec-14 14:30N 59°24' E 018°21'0 0.0
2018-Dec-14 14:00N 59°24' E 018°21'0 0.0
2018-Dec-14 13:30N 59°24' E 018°21'0 0.0
2018-Dec-14 13:00N 59°24' E 018°21'0 0.0
2018-Dec-14 12:30N 59°24' E 018°21'0 0.0
2018-Dec-14 12:00N 59°24' E 018°21'0 0.0
2018-Dec-14 11:30N 59°24' E 018°21'0 0.0
2018-Dec-14 11:00N 59°24' E 018°21'0 0.0
2018-Dec-14 10:30N 59°24' E 018°21'0 0.0
2018-Dec-14 10:00N 59°24' E 018°21'0 0.0
2018-Dec-14 09:30N 59°24' E 018°21'0 0.0
2018-Dec-14 09:00N 59°24' E 018°21'0 0.0
2018-Dec-14 08:30N 59°24' E 018°21'0 0.4
2018-Dec-14 08:00N 59°24' E 018°21'713.2
2018-Dec-14 07:30N 59°20' E 018°11'3 6.8
2018-Dec-14 07:00N 59°20' E 018°05'4 7.9
2018-Dec-14 06:31N 59°20' E 018°12'5 9.1
2018-Dec-14 06:01N 59°23' E 018°20'2 3.4
2018-Dec-14 05:30N 59°24' E 018°23'1 2.2
2018-Dec-14 05:00N 59°23' E 018°25'2 4.0
2018-Dec-14 04:30N 59°24' E 018°21'0 0.0
2018-Dec-14 04:00N 59°24' E 018°21'0 0.0
2018-Dec-14 03:00N 59°24' E 018°21'0 0.0
2018-Dec-14 02:30N 59°24' E 018°21'0 0.0
2018-Dec-14 02:01N 59°24' E 018°21'0 0.0
2018-Dec-14 01:30N 59°24' E 018°21'0 0.0
2018-Dec-14 01:00N 59°24' E 018°21'0 0.0
2018-Dec-14 00:31N 59°24' E 018°21'0 0.0
2018-Dec-14 00:00N 59°24' E 018°21'0 0.0
2018-Dec-13 23:30N 59°24' E 018°21'0 0.0
2018-Dec-13 23:00N 59°24' E 018°21'0 0.0
2018-Dec-13 22:30N 59°24' E 018°21'0 0.0
2018-Dec-13 22:00N 59°24' E 018°21'0 0.0
2018-Dec-13 21:30N 59°24' E 018°21'0 0.0
2018-Dec-13 21:00N 59°24' E 018°21'0 0.0
2018-Dec-13 20:30N 59°24' E 018°21'0 0.0
2018-Dec-13 20:00N 59°24' E 018°21'0 0.0
2018-Dec-13 19:30N 59°24' E 018°21'0 0.0
2018-Dec-13 19:00N 59°24' E 018°21'0 0.0
2018-Dec-13 18:30N 59°24' E 018°21'2 3.1
2018-Dec-13 18:00N 59°23' E 018°24'2 3.6
2018-Dec-13 17:30N 59°23' E 018°20'4 8.6
2018-Dec-13 17:00N 59°21' E 018°13'5 9.3
2018-Dec-13 16:30N 59°20' E 018°05'0 0.1
2018-Dec-13 16:00N 59°20' E 018°05'0 0.0
2018-Dec-13 15:30N 59°20' E 018°05'0 0.0
2018-Dec-13 15:01N 59°20' E 018°05'0 0.0
2018-Dec-13 14:30N 59°20' E 018°05'0 0.0
2018-Dec-13 14:00N 59°20' E 018°05'0 0.0
2018-Dec-13 13:31N 59°20' E 018°05'0 0.0
2018-Dec-13 13:00N 59°20' E 018°05'0 0.0
2018-Dec-13 12:31N 59°20' E 018°05'0 0.0
2018-Dec-13 12:00N 59°20' E 018°05'0 0.0
2018-Dec-13 11:30N 59°20' E 018°05'0 0.0
2018-Dec-13 11:00N 59°20' E 018°05'0 0.0
2018-Dec-13 10:31N 59°20' E 018°05'0 0.0
2018-Dec-13 10:00N 59°20' E 018°05'0 0.0
2018-Dec-13 09:30N 59°20' E 018°05'0 0.0
2018-Dec-13 09:00N 59°20' E 018°05'0 0.0
2018-Dec-13 08:30N 59°20' E 018°05'0 0.0
2018-Dec-13 08:00N 59°20' E 018°05'0 0.0
2018-Dec-13 07:31N 59°20' E 018°05'0 0.0
2018-Dec-13 07:00N 59°20' E 018°05'0 0.0
2018-Dec-13 06:30N 59°20' E 018°05'0 0.0
2018-Dec-13 06:00N 59°20' E 018°05'0 0.0
2018-Dec-13 05:30N 59°20' E 018°05'0 0.0
2018-Dec-13 05:00N 59°20' E 018°05'0 0.0
2018-Dec-13 04:30N 59°20' E 018°05'0 0.0
2018-Dec-13 04:01N 59°20' E 018°05'0 0.0
2018-Dec-13 03:31N 59°20' E 018°05'0 0.0
2018-Dec-13 03:00N 59°20' E 018°05'0 0.0
2018-Dec-13 02:30N 59°20' E 018°05'0 0.0
2018-Dec-13 02:00N 59°20' E 018°05'0 0.0
2018-Dec-13 01:30N 59°20' E 018°05'0 0.0
2018-Dec-13 01:00N 59°20' E 018°05'0 0.0
2018-Dec-13 00:30N 59°20' E 018°05'0 0.0
2018-Dec-13 00:00N 59°20' E 018°05'0 0.0
2018-Dec-12 23:30N 59°20' E 018°05'0 0.0
2018-Dec-12 23:00N 59°20' E 018°05'0 0.0
2018-Dec-12 22:30N 59°20' E 018°05'0 0.0
2018-Dec-12 22:01N 59°20' E 018°05'0 0.0
2018-Dec-12 21:30N 59°20' E 018°05'0 0.0
2018-Dec-12 21:00N 59°20' E 018°05'0 0.0
2018-Dec-12 20:31N 59°20' E 018°05'0 0.0
2018-Dec-12 20:00N 59°20' E 018°05'0 0.0
2018-Dec-12 19:30N 59°20' E 018°05'0 0.0
2018-Dec-12 19:00N 59°20' E 018°05'0 0.0
2018-Dec-12 18:30N 59°20' E 018°05'0 0.0
2018-Dec-12 18:00N 59°20' E 018°05'0 0.0
2018-Dec-12 17:30N 59°20' E 018°05'0 0.0
2018-Dec-12 17:00N 59°20' E 018°05'0 0.0
2018-Dec-12 16:30N 59°20' E 018°05'0 0.0
2018-Dec-12 16:00N 59°20' E 018°05'0 0.0
2018-Dec-12 15:30N 59°20' E 018°05'0 0.0
2018-Dec-12 15:00N 59°20' E 018°05'0 0.0
2018-Dec-12 14:31N 59°20' E 018°05'0 0.0
2018-Dec-12 14:00N 59°20' E 018°05'0 0.0
2018-Dec-12 13:30N 59°20' E 018°05'0 0.0
2018-Dec-12 13:00N 59°20' E 018°05'0 0.0
2018-Dec-12 12:30N 59°20' E 018°05'0 0.0
2018-Dec-12 12:00N 59°20' E 018°05'0 0.0
2018-Dec-12 11:31N 59°20' E 018°05'0 0.0
2018-Dec-12 11:00N 59°20' E 018°05'0 0.0
2018-Dec-12 10:30N 59°20' E 018°05'0 0.0
2018-Dec-12 10:00N 59°20' E 018°05'0 0.0
2018-Dec-12 09:30N 59°20' E 018°05'0 0.0
2018-Dec-12 09:00N 59°20' E 018°05'0 0.0
2018-Dec-12 08:30N 59°20' E 018°05'0 0.0
2018-Dec-12 08:00N 59°20' E 018°05'0 0.0
2018-Dec-12 07:30N 59°20' E 018°05'0 0.0
2018-Dec-12 07:00N 59°20' E 018°05'0 0.0
2018-Dec-12 06:30N 59°20' E 018°05'0 0.0
2018-Dec-12 06:00N 59°20' E 018°05'0 0.0
2018-Dec-12 05:30N 59°20' E 018°05'0 0.0
2018-Dec-12 05:00N 59°20' E 018°05'0 0.0
2018-Dec-12 04:30N 59°20' E 018°05'0 0.0
2018-Dec-12 04:00N 59°20' E 018°05'0 0.0
2018-Dec-12 03:30N 59°20' E 018°05'0 0.0
2018-Dec-12 03:00N 59°20' E 018°05'0 0.0
2018-Dec-12 02:31N 59°20' E 018°05'0 0.0
2018-Dec-12 02:00N 59°20' E 018°05'0 0.0
2018-Dec-12 01:30N 59°20' E 018°05'0 0.0
2018-Dec-12 01:00N 59°20' E 018°05'0 0.0
2018-Dec-12 00:30N 59°20' E 018°05'0 0.0
2018-Dec-12 00:00N 59°20' E 018°05'0 0.0
2018-Dec-11 23:30N 59°20' E 018°05'0 0.0
2018-Dec-11 23:00N 59°20' E 018°05'0 0.0
2018-Dec-11 22:30N 59°20' E 018°05'0 0.0
2018-Dec-11 22:00N 59°20' E 018°05'0 0.0
2018-Dec-11 21:30N 59°20' E 018°05'0 0.0
2018-Dec-11 21:00N 59°20' E 018°05'0 0.0
2018-Dec-11 20:30N 59°20' E 018°05'0 0.0
2018-Dec-11 20:00N 59°20' E 018°05'0 0.0
2018-Dec-11 19:30N 59°20' E 018°05'0 0.0
2018-Dec-11 19:00N 59°20' E 018°05'0 0.0
2018-Dec-11 18:30N 59°20' E 018°05'0 0.0
2018-Dec-11 18:00N 59°20' E 018°05'0 0.0
2018-Dec-11 17:30N 59°20' E 018°05'0 0.0
2018-Dec-11 17:00N 59°20' E 018°05'0 0.0
2018-Dec-11 16:30N 59°20' E 018°05'0 0.0
2018-Dec-11 16:00N 59°20' E 018°05'0 0.0
2018-Dec-11 15:30N 59°20' E 018°05'0 0.0
2018-Dec-11 15:00N 59°20' E 018°05'0 0.0
2018-Dec-11 14:31N 59°20' E 018°05'0 0.0
2018-Dec-11 14:00N 59°20' E 018°05'0 0.0
2018-Dec-11 13:30N 59°20' E 018°05'0 0.0
2018-Dec-11 13:00N 59°20' E 018°05'0 0.0
2018-Dec-11 12:30N 59°20' E 018°05'0 0.0
2018-Dec-11 12:00N 59°20' E 018°05'0 0.0
2018-Dec-11 11:30N 59°20' E 018°05'0 0.0
2018-Dec-11 11:00N 59°20' E 018°05'0 0.0
2018-Dec-11 10:30N 59°20' E 018°05'0 0.0
2018-Dec-11 10:00N 59°20' E 018°05'0 0.0
2018-Dec-11 09:30N 59°20' E 018°05'0 0.0
2018-Dec-11 09:00N 59°20' E 018°05'0 0.0
2018-Dec-11 08:30N 59°20' E 018°05'0 0.0
2018-Dec-11 08:00N 59°20' E 018°05'0 0.0
2018-Dec-11 07:30N 59°20' E 018°05'0 0.0
2018-Dec-11 07:00N 59°20' E 018°05'0 0.0
2018-Dec-11 06:30N 59°20' E 018°05'0 0.0
2018-Dec-11 06:00N 59°20' E 018°05'0 0.0
2018-Dec-11 05:30N 59°20' E 018°05'0 0.0
2018-Dec-11 05:00N 59°20' E 018°05'0 0.0
2018-Dec-11 04:31N 59°20' E 018°05'0 0.0
2018-Dec-11 04:00N 59°20' E 018°05'0 0.0
2018-Dec-11 03:30N 59°20' E 018°05'0 0.0
2018-Dec-11 03:01N 59°20' E 018°05'0 0.0
2018-Dec-11 02:31N 59°20' E 018°05'0 0.0
2018-Dec-11 02:00N 59°20' E 018°05'0 0.0
2018-Dec-11 01:30N 59°20' E 018°05'0 0.0
2018-Dec-11 01:00N 59°20' E 018°05'0 0.0
2018-Dec-11 00:30N 59°20' E 018°05'0 0.0
2018-Dec-11 00:00N 59°20' E 018°05'0 0.0
2018-Dec-10 23:30N 59°20' E 018°05'0 0.0
2018-Dec-10 23:00N 59°20' E 018°05'0 0.0
2018-Dec-10 22:30N 59°20' E 018°05'0 0.0
2018-Dec-10 22:00N 59°20' E 018°05'0 0.0
2018-Dec-10 21:30N 59°20' E 018°05'0 0.0
2018-Dec-10 21:00N 59°20' E 018°05'0 0.0
2018-Dec-10 20:30N 59°20' E 018°05'0 0.0
2018-Dec-10 20:00N 59°20' E 018°05'0 0.0
2018-Dec-10 19:31N 59°20' E 018°05'0 0.0
2018-Dec-10 19:01N 59°20' E 018°05'0 0.0
2018-Dec-10 18:30N 59°20' E 018°05'0 0.0
2018-Dec-10 18:00N 59°20' E 018°05'0 0.0
2018-Dec-10 17:30N 59°20' E 018°05'0 0.0
2018-Dec-10 17:00N 59°20' E 018°05'0 0.0
2018-Dec-10 16:30N 59°20' E 018°05'0 0.0
2018-Dec-10 16:00N 59°20' E 018°05'0 0.0
2018-Dec-10 15:31N 59°20' E 018°05'0 0.0
2018-Dec-10 15:00N 59°20' E 018°05'0 0.0
2018-Dec-10 14:30N 59°20' E 018°05'0 0.0
2018-Dec-10 14:01N 59°20' E 018°05'0 0.0
2018-Dec-10 13:30N 59°20' E 018°05'0 0.0
2018-Dec-10 13:00N 59°20' E 018°05'0 0.0
2018-Dec-10 12:30N 59°20' E 018°05'0 0.0
2018-Dec-10 12:00N 59°20' E 018°05'0 0.0
2018-Dec-10 11:30N 59°20' E 018°05'0 0.0
2018-Dec-10 11:00N 59°20' E 018°05'0 0.0
2018-Dec-10 10:30N 59°20' E 018°05'0 0.0
2018-Dec-10 10:00N 59°20' E 018°05'1 1.3
2018-Dec-10 09:30N 59°19' E 018°06'1 1.1
2018-Dec-10 09:00N 59°20' E 018°05'0 0.0
2018-Dec-10 08:30N 59°20' E 018°05'0 0.0
2018-Dec-10 08:01N 59°20' E 018°05'0 0.0
2018-Dec-10 07:30N 59°20' E 018°05'0 0.0
2018-Dec-10 07:00N 59°20' E 018°05'0 0.0
2018-Dec-10 06:30N 59°20' E 018°05'0 0.0
2018-Dec-10 06:00N 59°20' E 018°05'0 0.0
2018-Dec-10 05:30N 59°20' E 018°05'0 0.0
2018-Dec-10 05:01N 59°20' E 018°05'0 0.0
2018-Dec-10 04:30N 59°20' E 018°05'0 0.0
2018-Dec-10 04:00N 59°20' E 018°05'0 0.0
2018-Dec-10 03:31N 59°20' E 018°05'0 0.0
2018-Dec-10 02:30N 59°20' E 018°05'0 0.0
2018-Dec-10 02:00N 59°20' E 018°05'0 0.0
2018-Dec-10 01:30N 59°20' E 018°05'0 0.0
2018-Dec-10 01:01N 59°20' E 018°05'0 0.0
2018-Dec-10 00:30N 59°20' E 018°05'0 0.0
2018-Dec-10 00:00N 59°20' E 018°05'0 0.0
2018-Dec-09 23:30N 59°20' E 018°05'0 0.0
2018-Dec-09 23:00N 59°20' E 018°05'0 0.0
2018-Dec-09 22:30N 59°20' E 018°05'0 0.0
2018-Dec-09 22:00N 59°20' E 018°05'0 0.0
2018-Dec-09 21:30N 59°20' E 018°05'0 0.0
2018-Dec-09 21:00N 59°20' E 018°05'0 0.1
2018-Dec-09 20:30N 59°20' E 018°05'611.3
2018-Dec-09 20:00N 59°22' E 018°15'510.0
2018-Dec-09 19:30N 59°25' E 018°22'713.5
2018-Dec-09 19:01N 59°23' E 018°34'4 7.1
2018-Dec-09 18:29N 59°25' E 018°28'4 7.9
2018-Dec-09 18:00N 59°24' E 018°21'5 9.6
2018-Dec-09 17:31N 59°21' E 018°14'510.2
2018-Dec-09 17:00N 59°20' E 018°04'0 0.0
2018-Dec-09 16:30N 59°20' E 018°04'0 0.0
2018-Dec-09 16:01N 59°20' E 018°04'3 6.4
2018-Dec-09 15:31N 59°20' E 018°11'612.3
2018-Dec-09 15:01N 59°22' E 018°22'3 6.1
2018-Dec-09 14:30N 59°25' E 018°22'4 7.7
2018-Dec-09 14:01N 59°28' E 018°27'3 0.9
2018-Dec-09 10:17N 59°30' E 018°32'2 7.3
2018-Dec-09 10:00N 59°28' E 018°29'4 7.3
2018-Dec-09 09:31N 59°27' E 018°23'4 8.4
2018-Dec-09 09:01N 59°23' E 018°20'4 8.6
2018-Dec-09 08:30N 59°21' E 018°13'5 9.1
2018-Dec-09 08:00N 59°20' E 018°05'0 0.0
2018-Dec-09 07:30N 59°20' E 018°05'0 0.0
2018-Dec-09 07:00N 59°20' E 018°05'0 0.0
2018-Dec-09 06:30N 59°20' E 018°05'0 0.0
2018-Dec-09 06:00N 59°20' E 018°05'0 0.0
2018-Dec-09 05:30N 59°20' E 018°05'0 0.0
2018-Dec-09 05:00N 59°20' E 018°05'0 0.0
2018-Dec-09 04:30N 59°20' E 018°05'0 0.0
2018-Dec-09 04:00N 59°20' E 018°05'0 0.0
2018-Dec-09 03:30N 59°20' E 018°05'0 0.0
2018-Dec-09 03:00N 59°20' E 018°05'0 0.0
2018-Dec-09 02:30N 59°20' E 018°05'0 0.0
2018-Dec-09 02:00N 59°20' E 018°05'0 0.0
2018-Dec-09 01:30N 59°20' E 018°05'0 0.0
2018-Dec-09 01:00N 59°20' E 018°05'0 0.0
2018-Dec-09 00:30N 59°20' E 018°05'0 0.0
2018-Dec-09 00:00N 59°20' E 018°05'0 0.0
2018-Dec-08 23:30N 59°20' E 018°05'0 0.0
2018-Dec-08 23:00N 59°20' E 018°05'0 0.0
2018-Dec-08 22:30N 59°20' E 018°05'0 0.0
2018-Dec-08 22:00N 59°20' E 018°05'0 0.0
2018-Dec-08 21:30N 59°20' E 018°05'0 0.0
2018-Dec-08 21:00N 59°20' E 018°05'0 0.0
2018-Dec-08 20:30N 59°20' E 018°05'0 0.0
2018-Dec-08 20:00N 59°20' E 018°05'0 0.0
2018-Dec-08 19:30N 59°20' E 018°05'0 0.0
2018-Dec-08 19:00N 59°20' E 018°05'0 0.0
2018-Dec-08 18:30N 59°20' E 018°05'0 0.6
2018-Dec-08 18:00N 59°19' E 018°05'510.4
2018-Dec-08 17:30N 59°21' E 018°14'4 9.0
2018-Dec-08 17:00N 59°24' E 018°21'4 7.3
2018-Dec-08 16:30N 59°27' E 018°27'2 4.4
2018-Dec-08 15:58N 59°28' E 018°30'3 7.3
2018-Dec-08 15:30N 59°27' E 018°23'3 6.4
2018-Dec-08 15:00N 59°24' E 018°21'1 1.1
2018-Dec-08 14:30N 59°25' E 018°21'5 8.7
2018-Dec-08 13:55N 59°25' E 018°31'4 9.4
2018-Dec-08 13:30N 59°23' E 018°38'2 4.1
2018-Dec-08 12:55N 59°23' E 018°42'3 6.2
2018-Dec-08 12:30N 59°24' E 018°47'3 5.6
2018-Dec-08 11:57N 59°24' E 018°53'0 0.0
2018-Dec-08 10:42N 59°24' E 018°53'0 0.3
2018-Dec-08 10:30N 59°24' E 018°53'3 6.0
2018-Dec-08 10:00N 59°23' E 018°48'2 4.7
2018-Dec-08 09:29N 59°22' E 018°43'2 4.8
2018-Dec-08 09:00N 59°23' E 018°39'610.6
2018-Dec-08 08:25N 59°25' E 018°27'3 7.4
2018-Dec-08 08:00N 59°25' E 018°22'510.1
2018-Dec-08 07:30N 59°21' E 018°14'510.3
2018-Dec-08 07:00N 59°20' E 018°05'0 0.0
2018-Dec-08 06:30N 59°20' E 018°05'0 0.0
2018-Dec-08 06:00N 59°20' E 018°05'0 0.0
2018-Dec-08 05:30N 59°20' E 018°05'0 0.0
2018-Dec-08 05:00N 59°20' E 018°05'0 0.0
2018-Dec-08 04:30N 59°20' E 018°05'0 0.0
2018-Dec-08 04:00N 59°20' E 018°05'0 0.0
2018-Dec-08 03:30N 59°20' E 018°05'0 0.0
2018-Dec-08 03:00N 59°20' E 018°05'0 0.0
2018-Dec-08 02:30N 59°20' E 018°05'0 0.0
2018-Dec-08 02:00N 59°20' E 018°05'0 0.0
2018-Dec-08 01:30N 59°20' E 018°05'0 0.0
2018-Dec-08 01:00N 59°20' E 018°05'0 0.0
2018-Dec-08 00:30N 59°20' E 018°05'0 0.0
2018-Dec-08 00:00N 59°20' E 018°05'0 0.0
2018-Dec-07 23:30N 59°20' E 018°05'0 0.0
2018-Dec-07 23:00N 59°20' E 018°05'0 0.0
2018-Dec-07 22:30N 59°20' E 018°05'0 0.0
2018-Dec-07 22:00N 59°20' E 018°05'0 0.0
2018-Dec-07 21:30N 59°20' E 018°05'0 0.0
2018-Dec-07 21:00N 59°20' E 018°05'0 0.0
2018-Dec-07 20:30N 59°20' E 018°05'0 0.0
2018-Dec-07 20:00N 59°20' E 018°05'0 0.0
2018-Dec-07 19:30N 59°20' E 018°05'0 0.0
2018-Dec-07 19:00N 59°20' E 018°05'0 0.0
2018-Dec-07 18:30N 59°20' E 018°05'0 0.0
2018-Dec-07 18:00N 59°20' E 018°05'0 0.0
2018-Dec-07 17:30N 59°20' E 018°05'0 0.0
2018-Dec-07 17:00N 59°20' E 018°05'0 0.0
2018-Dec-07 16:30N 59°20' E 018°05'0 0.0
2018-Dec-07 16:00N 59°20' E 018°05'0 0.0
2018-Dec-07 15:30N 59°20' E 018°05'0 0.0
2018-Dec-07 15:00N 59°20' E 018°05'0 0.0
2018-Dec-07 14:30N 59°20' E 018°05'0 0.0
2018-Dec-07 14:00N 59°20' E 018°05'0 0.0
2018-Dec-07 13:30N 59°20' E 018°05'0 0.0
2018-Dec-07 13:00N 59°20' E 018°05'0 0.0
2018-Dec-07 12:30N 59°20' E 018°05'0 0.0
2018-Dec-07 12:00N 59°20' E 018°05'0 0.0
2018-Dec-07 11:30N 59°20' E 018°05'0 0.0
2018-Dec-07 11:00N 59°20' E 018°05'0 0.0
2018-Dec-07 10:30N 59°20' E 018°05'0 0.0
2018-Dec-07 10:00N 59°20' E 018°05'0 0.0
2018-Dec-07 09:30N 59°20' E 018°05'0 0.0
2018-Dec-07 09:00N 59°20' E 018°05'0 0.0
2018-Dec-07 08:30N 59°20' E 018°05'0 0.0
2018-Dec-07 08:00N 59°20' E 018°05'0 0.0
2018-Dec-07 07:30N 59°20' E 018°05'0 0.0
2018-Dec-07 07:00N 59°20' E 018°05'4 7.9
2018-Dec-07 06:30N 59°20' E 018°12'4 8.6
2018-Dec-07 06:00N 59°23' E 018°19'2 3.8
2018-Dec-07 05:30N 59°24' E 018°23'0 0.6
2018-Dec-07 05:00N 59°24' E 018°22'1 1.1
2018-Dec-07 04:30N 59°24' E 018°21'0 0.0
2018-Dec-07 04:00N 59°24' E 018°21'0 0.0
2018-Dec-07 03:01N 59°24' E 018°21'0 0.0
2018-Dec-07 02:31N 59°24' E 018°21'0 0.0
2018-Dec-07 02:00N 59°24' E 018°21'0 0.0
2018-Dec-07 01:30N 59°24' E 018°21'0 0.0
2018-Dec-07 01:00N 59°24' E 018°21'0 0.0
2018-Dec-07 00:30N 59°24' E 018°21'0 0.0
2018-Dec-07 00:00N 59°24' E 018°21'0 0.0
2018-Dec-06 23:30N 59°24' E 018°21'0 0.0
2018-Dec-06 23:00N 59°24' E 018°21'0 0.0
2018-Dec-06 22:31N 59°24' E 018°21'0 0.0
2018-Dec-06 22:00N 59°24' E 018°21'0 0.0
2018-Dec-06 21:30N 59°24' E 018°21'0 0.0
2018-Dec-06 21:00N 59°24' E 018°21'0 0.0
2018-Dec-06 20:30N 59°24' E 018°21'0 0.0
2018-Dec-06 20:00N 59°24' E 018°21'0 0.0
2018-Dec-06 19:30N 59°24' E 018°21'0 0.0
2018-Dec-06 19:00N 59°24' E 018°21'0 0.2
2018-Dec-06 18:30N 59°24' E 018°21'1 1.5
2018-Dec-06 18:00N 59°24' E 018°23'2 3.2
2018-Dec-06 17:30N 59°23' E 018°20'4 9.0
2018-Dec-06 17:00N 59°20' E 018°13'4 8.5
2018-Dec-06 16:30N 59°20' E 018°04'0 0.1
2018-Dec-06 16:01N 59°20' E 018°05'0 0.0
2018-Dec-06 15:31N 59°20' E 018°05'0 0.0
2018-Dec-06 15:00N 59°20' E 018°05'0 0.0
2018-Dec-06 14:30N 59°20' E 018°05'0 0.0
2018-Dec-06 14:00N 59°20' E 018°05'0 0.0
2018-Dec-06 13:30N 59°20' E 018°05'0 0.0
2018-Dec-06 13:00N 59°20' E 018°05'0 0.0
2018-Dec-06 12:30N 59°20' E 018°05'0 0.0
2018-Dec-06 12:00N 59°20' E 018°05'0 0.0
2018-Dec-06 11:30N 59°20' E 018°05'0 0.0
2018-Dec-06 11:00N 59°20' E 018°05'0 0.0
2018-Dec-06 10:30N 59°20' E 018°05'0 0.0
2018-Dec-06 10:01N 59°20' E 018°05'0 0.0
2018-Dec-06 09:30N 59°20' E 018°05'0 0.6
2018-Dec-06 09:00N 59°19' E 018°05'510.5
2018-Dec-06 08:30N 59°21' E 018°14'5 9.1
2018-Dec-06 08:00N 59°24' E 018°21'2 4.9
2018-Dec-06 07:30N 59°26' E 018°25'611.9
2018-Dec-06 07:01N 59°23' E 018°36'5 9.2
2018-Dec-06 06:30N 59°23' E 018°45'2 4.0
2018-Dec-06 06:00N 59°23' E 018°49'3 5.7
2018-Dec-06 05:29N 59°25' E 018°54'2 0.2
2018-Dec-05 17:13N 59°23' E 018°51'1 6.2
2018-Dec-05 17:00N 59°23' E 018°48'3 6.7
2018-Dec-05 16:30N 59°23' E 018°42'3 5.4
2018-Dec-05 16:00N 59°22' E 018°36'0 0.0
2018-Dec-05 15:30N 59°22' E 018°36'0 0.0
2018-Dec-05 15:00N 59°22' E 018°36'3 7.0
2018-Dec-05 14:30N 59°24' E 018°42'2 3.9
2018-Dec-05 14:00N 59°23' E 018°46'2 3.6
2018-Dec-05 13:30N 59°23' E 018°50'2 1.0
2018-Dec-05 11:17N 59°24' E 018°53'  
Track history (hours):
 
Tides and Currents Weather Stations Pressure Air Temp Water Temp Dewpoint Dewpoint Depression Visibility Wind Speed Wind Dir Waves Ship Positions

Vano

Last reported at 2018-Dec-15 11:00 UTC. Time now 2018-Dec-15 11:03 UTC.
Position N 59°24' E 018°21'.

Length 38 m; draft 2.5 m.

Type: Passenger vessel. MMSI: 265520400.

Date/timePositionNaut miles runAvg speedWind from/ knotsBaromVisibWave heightAir tempDewpointWater temp
2018-Dec-15 11:00N 59°24' E 018°21'0 0.0
2018-Dec-15 10:30N 59°24' E 018°21'0 0.0
2018-Dec-15 10:00N 59°24' E 018°21'0 0.0
2018-Dec-15 09:30N 59°24' E 018°21'0 0.0
2018-Dec-15 09:00N 59°24' E 018°21'0 0.0
2018-Dec-15 08:30N 59°24' E 018°21'0 0.0
2018-Dec-15 08:00N 59°24' E 018°21'0 0.0
2018-Dec-15 07:30N 59°24' E 018°21'0 0.0
2018-Dec-15 07:00N 59°24' E 018°21'0 0.0
2018-Dec-15 06:30N 59°24' E 018°21'0 0.0
2018-Dec-15 06:00N 59°24' E 018°21'0 0.0
2018-Dec-15 05:30N 59°24' E 018°21'0 0.0
2018-Dec-15 05:00N 59°24' E 018°21'0 0.0
2018-Dec-15 04:30N 59°24' E 018°21'0 0.0
2018-Dec-15 04:00N 59°24' E 018°21'0 0.0
2018-Dec-15 03:30N 59°24' E 018°21'0 0.0
2018-Dec-15 03:00N 59°24' E 018°21'0 0.0
2018-Dec-15 02:30N 59°24' E 018°21'0 0.0
2018-Dec-15 02:00N 59°24' E 018°21'0 0.0
2018-Dec-15 01:30N 59°24' E 018°21'0 0.0
2018-Dec-15 01:00N 59°24' E 018°21'0 0.0
2018-Dec-15 00:30N 59°24' E 018°21'0 0.0
2018-Dec-15 00:00N 59°24' E 018°21'0 0.0
2018-Dec-14 23:30N 59°24' E 018°21'0 0.0
2018-Dec-14 23:00N 59°24' E 018°21'0 0.0
2018-Dec-14 22:30N 59°24' E 018°21'0 0.0
2018-Dec-14 21:59N 59°24' E 018°21'0 0.0
2018-Dec-14 21:30N 59°24' E 018°21'0 0.0
2018-Dec-14 21:00N 59°24' E 018°21'0 0.0
2018-Dec-14 20:30N 59°24' E 018°21'0 0.0
2018-Dec-14 20:00N 59°24' E 018°21'0 0.0
2018-Dec-14 19:30N 59°24' E 018°21'0 0.0
2018-Dec-14 19:00N 59°24' E 018°21'0 0.0
2018-Dec-14 18:30N 59°24' E 018°21'0 0.0
2018-Dec-14 18:00N 59°24' E 018°21'0 0.0
2018-Dec-14 17:30N 59°24' E 018°21'0 0.0
2018-Dec-14 17:00N 59°24' E 018°21'0 0.0
2018-Dec-14 16:30N 59°24' E 018°21'0 0.0
2018-Dec-14 16:00N 59°24' E 018°21'0 0.0
2018-Dec-14 15:30N 59°24' E 018°21'0 0.0
2018-Dec-14 15:00N 59°24' E 018°21'0 0.0
2018-Dec-14 14:30N 59°24' E 018°21'0 0.0
2018-Dec-14 14:00N 59°24' E 018°21'0 0.0
2018-Dec-14 13:30N 59°24' E 018°21'0 0.0
2018-Dec-14 13:00N 59°24' E 018°21'0 0.0
2018-Dec-14 12:30N 59°24' E 018°21'0 0.0
2018-Dec-14 12:00N 59°24' E 018°21'0 0.0
2018-Dec-14 11:30N 59°24' E 018°21'0 0.0
2018-Dec-14 11:00N 59°24' E 018°21'0 0.0
2018-Dec-14 10:30N 59°24' E 018°21'0 0.0
2018-Dec-14 10:00N 59°24' E 018°21'0 0.0
2018-Dec-14 09:30N 59°24' E 018°21'0 0.0
2018-Dec-14 09:00N 59°24' E 018°21'0 0.0
2018-Dec-14 08:30N 59°24' E 018°21'0 0.4
2018-Dec-14 08:00N 59°24' E 018°21'713.2
2018-Dec-14 07:30N 59°20' E 018°11'3 6.8
2018-Dec-14 07:00N 59°20' E 018°05'4 7.9
2018-Dec-14 06:31N 59°20' E 018°12'5 9.1
2018-Dec-14 06:01N 59°23' E 018°20'2 3.4
2018-Dec-14 05:30N 59°24' E 018°23'1 2.2
2018-Dec-14 05:00N 59°23' E 018°25'2 4.0
2018-Dec-14 04:30N 59°24' E 018°21'0 0.0
2018-Dec-14 04:00N 59°24' E 018°21'0 0.0
2018-Dec-14 03:00N 59°24' E 018°21'0 0.0
2018-Dec-14 02:30N 59°24' E 018°21'0 0.0
2018-Dec-14 02:01N 59°24' E 018°21'0 0.0
2018-Dec-14 01:30N 59°24' E 018°21'0 0.0
2018-Dec-14 01:00N 59°24' E 018°21'0 0.0
2018-Dec-14 00:31N 59°24' E 018°21'0 0.0
2018-Dec-14 00:00N 59°24' E 018°21'0 0.0
2018-Dec-13 23:30N 59°24' E 018°21'0 0.0
2018-Dec-13 23:00N 59°24' E 018°21'0 0.0
2018-Dec-13 22:30N 59°24' E 018°21'0 0.0
2018-Dec-13 22:00N 59°24' E 018°21'0 0.0
2018-Dec-13 21:30N 59°24' E 018°21'0 0.0
2018-Dec-13 21:00N 59°24' E 018°21'0 0.0
2018-Dec-13 20:30N 59°24' E 018°21'0 0.0
2018-Dec-13 20:00N 59°24' E 018°21'0 0.0
2018-Dec-13 19:30N 59°24' E 018°21'0 0.0
2018-Dec-13 19:00N 59°24' E 018°21'0 0.0
2018-Dec-13 18:30N 59°24' E 018°21'2 3.1
2018-Dec-13 18:00N 59°23' E 018°24'2 3.6
2018-Dec-13 17:30N 59°23' E 018°20'4 8.6
2018-Dec-13 17:00N 59°21' E 018°13'5 9.3
2018-Dec-13 16:30N 59°20' E 018°05'0 0.1
2018-Dec-13 16:00N 59°20' E 018°05'0 0.0
2018-Dec-13 15:30N 59°20' E 018°05'0 0.0
2018-Dec-13 15:01N 59°20' E 018°05'0 0.0
2018-Dec-13 14:30N 59°20' E 018°05'0 0.0
2018-Dec-13 14:00N 59°20' E 018°05'0 0.0
2018-Dec-13 13:31N 59°20' E 018°05'0 0.0
2018-Dec-13 13:00N 59°20' E 018°05'0 0.0
2018-Dec-13 12:31N 59°20' E 018°05'0 0.0
2018-Dec-13 12:00N 59°20' E 018°05'0 0.0
2018-Dec-13 11:30N 59°20' E 018°05'0 0.0
2018-Dec-13 11:00N 59°20' E 018°05'0 0.0
2018-Dec-13 10:31N 59°20' E 018°05'0 0.0
2018-Dec-13 10:00N 59°20' E 018°05'0 0.0
2018-Dec-13 09:30N 59°20' E 018°05'0 0.0
2018-Dec-13 09:00N 59°20' E 018°05'0 0.0
2018-Dec-13 08:30N 59°20' E 018°05'0 0.0
2018-Dec-13 08:00N 59°20' E 018°05'0 0.0
2018-Dec-13 07:31N 59°20' E 018°05'0 0.0
2018-Dec-13 07:00N 59°20' E 018°05'0 0.0
2018-Dec-13 06:30N 59°20' E 018°05'0 0.0
2018-Dec-13 06:00N 59°20' E 018°05'0 0.0
2018-Dec-13 05:30N 59°20' E 018°05'0 0.0
2018-Dec-13 05:00N 59°20' E 018°05'0 0.0
2018-Dec-13 04:30N 59°20' E 018°05'0 0.0
2018-Dec-13 04:01N 59°20' E 018°05'0 0.0
2018-Dec-13 03:31N 59°20' E 018°05'0 0.0
2018-Dec-13 03:00N 59°20' E 018°05'0 0.0
2018-Dec-13 02:30N 59°20' E 018°05'0 0.0
2018-Dec-13 02:00N 59°20' E 018°05'0 0.0
2018-Dec-13 01:30N 59°20' E 018°05'0 0.0
2018-Dec-13 01:00N 59°20' E 018°05'0 0.0
2018-Dec-13 00:30N 59°20' E 018°05'0 0.0
2018-Dec-13 00:00N 59°20' E 018°05'0 0.0
2018-Dec-12 23:30N 59°20' E 018°05'0 0.0
2018-Dec-12 23:00N 59°20' E 018°05'0 0.0
2018-Dec-12 22:30N 59°20' E 018°05'0 0.0
2018-Dec-12 22:01N 59°20' E 018°05'0 0.0
2018-Dec-12 21:30N 59°20' E 018°05'0 0.0
2018-Dec-12 21:00N 59°20' E 018°05'0 0.0
2018-Dec-12 20:31N 59°20' E 018°05'0 0.0
2018-Dec-12 20:00N 59°20' E 018°05'0 0.0
2018-Dec-12 19:30N 59°20' E 018°05'0 0.0
2018-Dec-12 19:00N 59°20' E 018°05'0 0.0
2018-Dec-12 18:30N 59°20' E 018°05'0 0.0
2018-Dec-12 18:00N 59°20' E 018°05'0 0.0
2018-Dec-12 17:30N 59°20' E 018°05'0 0.0
2018-Dec-12 17:00N 59°20' E 018°05'0 0.0
2018-Dec-12 16:30N 59°20' E 018°05'0 0.0
2018-Dec-12 16:00N 59°20' E 018°05'0 0.0
2018-Dec-12 15:30N 59°20' E 018°05'0 0.0
2018-Dec-12 15:00N 59°20' E 018°05'0 0.0
2018-Dec-12 14:31N 59°20' E 018°05'0 0.0
2018-Dec-12 14:00N 59°20' E 018°05'0 0.0
2018-Dec-12 13:30N 59°20' E 018°05'0 0.0
2018-Dec-12 13:00N 59°20' E 018°05'0 0.0
2018-Dec-12 12:30N 59°20' E 018°05'0 0.0
2018-Dec-12 12:00N 59°20' E 018°05'0 0.0
2018-Dec-12 11:31N 59°20' E 018°05'0 0.0
2018-Dec-12 11:00N 59°20' E 018°05'0 0.0
2018-Dec-12 10:30N 59°20' E 018°05'0 0.0
2018-Dec-12 10:00N 59°20' E 018°05'0 0.0
2018-Dec-12 09:30N 59°20' E 018°05'0 0.0
2018-Dec-12 09:00N 59°20' E 018°05'0 0.0
2018-Dec-12 08:30N 59°20' E 018°05'0 0.0
2018-Dec-12 08:00N 59°20' E 018°05'0 0.0
2018-Dec-12 07:30N 59°20' E 018°05'0 0.0
2018-Dec-12 07:00N 59°20' E 018°05'0 0.0
2018-Dec-12 06:30N 59°20' E 018°05'0 0.0
2018-Dec-12 06:00N 59°20' E 018°05'0 0.0
2018-Dec-12 05:30N 59°20' E 018°05'0 0.0
2018-Dec-12 05:00N 59°20' E 018°05'0 0.0
2018-Dec-12 04:30N 59°20' E 018°05'0 0.0
2018-Dec-12 04:00N 59°20' E 018°05'0 0.0
2018-Dec-12 03:30N 59°20' E 018°05'0 0.0
2018-Dec-12 03:00N 59°20' E 018°05'0 0.0
2018-Dec-12 02:31N 59°20' E 018°05'0 0.0
2018-Dec-12 02:00N 59°20' E 018°05'0 0.0
2018-Dec-12 01:30N 59°20' E 018°05'0 0.0
2018-Dec-12 01:00N 59°20' E 018°05'0 0.0
2018-Dec-12 00:30N 59°20' E 018°05'0 0.0
2018-Dec-12 00:00N 59°20' E 018°05'0 0.0
2018-Dec-11 23:30N 59°20' E 018°05'0 0.0
2018-Dec-11 23:00N 59°20' E 018°05'0 0.0
2018-Dec-11 22:30N 59°20' E 018°05'0 0.0
2018-Dec-11 22:00N 59°20' E 018°05'0 0.0
2018-Dec-11 21:30N 59°20' E 018°05'0 0.0
2018-Dec-11 21:00N 59°20' E 018°05'0 0.0
2018-Dec-11 20:30N 59°20' E 018°05'0 0.0
2018-Dec-11 20:00N 59°20' E 018°05'0 0.0
2018-Dec-11 19:30N 59°20' E 018°05'0 0.0
2018-Dec-11 19:00N 59°20' E 018°05'0 0.0
2018-Dec-11 18:30N 59°20' E 018°05'0 0.0
2018-Dec-11 18:00N 59°20' E 018°05'0 0.0
2018-Dec-11 17:30N 59°20' E 018°05'0 0.0
2018-Dec-11 17:00N 59°20' E 018°05'0 0.0
2018-Dec-11 16:30N 59°20' E 018°05'0 0.0
2018-Dec-11 16:00N 59°20' E 018°05'0 0.0
2018-Dec-11 15:30N 59°20' E 018°05'0 0.0
2018-Dec-11 15:00N 59°20' E 018°05'0 0.0
2018-Dec-11 14:31N 59°20' E 018°05'0 0.0
2018-Dec-11 14:00N 59°20' E 018°05'0 0.0
2018-Dec-11 13:30N 59°20' E 018°05'0 0.0
2018-Dec-11 13:00N 59°20' E 018°05'0 0.0
2018-Dec-11 12:30N 59°20' E 018°05'0 0.0
2018-Dec-11 12:00N 59°20' E 018°05'0 0.0
2018-Dec-11 11:30N 59°20' E 018°05'0 0.0
2018-Dec-11 11:00N 59°20' E 018°05'0 0.0
2018-Dec-11 10:30N 59°20' E 018°05'0 0.0
2018-Dec-11 10:00N 59°20' E 018°05'0 0.0
2018-Dec-11 09:30N 59°20' E 018°05'0 0.0
2018-Dec-11 09:00N 59°20' E 018°05'0 0.0
2018-Dec-11 08:30N 59°20' E 018°05'0 0.0
2018-Dec-11 08:00N 59°20' E 018°05'0 0.0
2018-Dec-11 07:30N 59°20' E 018°05'0 0.0
2018-Dec-11 07:00N 59°20' E 018°05'0 0.0
2018-Dec-11 06:30N 59°20' E 018°05'0 0.0
2018-Dec-11 06:00N 59°20' E 018°05'0 0.0
2018-Dec-11 05:30N 59°20' E 018°05'0 0.0
2018-Dec-11 05:00N 59°20' E 018°05'0 0.0
2018-Dec-11 04:31N 59°20' E 018°05'0 0.0
2018-Dec-11 04:00N 59°20' E 018°05'0 0.0
2018-Dec-11 03:30N 59°20' E 018°05'0 0.0
2018-Dec-11 03:01N 59°20' E 018°05'0 0.0
2018-Dec-11 02:31N 59°20' E 018°05'0 0.0
2018-Dec-11 02:00N 59°20' E 018°05'0 0.0
2018-Dec-11 01:30N 59°20' E 018°05'0 0.0
2018-Dec-11 01:00N 59°20' E 018°05'0 0.0
2018-Dec-11 00:30N 59°20' E 018°05'0 0.0
2018-Dec-11 00:00N 59°20' E 018°05'0 0.0
2018-Dec-10 23:30N 59°20' E 018°05'0 0.0
2018-Dec-10 23:00N 59°20' E 018°05'0 0.0
2018-Dec-10 22:30N 59°20' E 018°05'0 0.0
2018-Dec-10 22:00N 59°20' E 018°05'0 0.0
2018-Dec-10 21:30N 59°20' E 018°05'0 0.0
2018-Dec-10 21:00N 59°20' E 018°05'0 0.0
2018-Dec-10 20:30N 59°20' E 018°05'0 0.0
2018-Dec-10 20:00N 59°20' E 018°05'0 0.0
2018-Dec-10 19:31N 59°20' E 018°05'0 0.0
2018-Dec-10 19:01N 59°20' E 018°05'0 0.0
2018-Dec-10 18:30N 59°20' E 018°05'0 0.0
2018-Dec-10 18:00N 59°20' E 018°05'0 0.0
2018-Dec-10 17:30N 59°20' E 018°05'0 0.0
2018-Dec-10 17:00N 59°20' E 018°05'0 0.0
2018-Dec-10 16:30N 59°20' E 018°05'0 0.0
2018-Dec-10 16:00N 59°20' E 018°05'0 0.0
2018-Dec-10 15:31N 59°20' E 018°05'0 0.0
2018-Dec-10 15:00N 59°20' E 018°05'0 0.0
2018-Dec-10 14:30N 59°20' E 018°05'0 0.0
2018-Dec-10 14:01N 59°20' E 018°05'0 0.0
2018-Dec-10 13:30N 59°20' E 018°05'0 0.0
2018-Dec-10 13:00N 59°20' E 018°05'0 0.0
2018-Dec-10 12:30N 59°20' E 018°05'0 0.0
2018-Dec-10 12:00N 59°20' E 018°05'0 0.0
2018-Dec-10 11:30N 59°20' E 018°05'0 0.0
2018-Dec-10 11:00N 59°20' E 018°05'0 0.0
2018-Dec-10 10:30N 59°20' E 018°05'0 0.0
2018-Dec-10 10:00N 59°20' E 018°05'1 1.3
2018-Dec-10 09:30N 59°19' E 018°06'1 1.1
2018-Dec-10 09:00N 59°20' E 018°05'0 0.0
2018-Dec-10 08:30N 59°20' E 018°05'0 0.0
2018-Dec-10 08:01N 59°20' E 018°05'0 0.0
2018-Dec-10 07:30N 59°20' E 018°05'0 0.0
2018-Dec-10 07:00N 59°20' E 018°05'0 0.0
2018-Dec-10 06:30N 59°20' E 018°05'0 0.0
2018-Dec-10 06:00N 59°20' E 018°05'0 0.0
2018-Dec-10 05:30N 59°20' E 018°05'0 0.0
2018-Dec-10 05:01N 59°20' E 018°05'0 0.0
2018-Dec-10 04:30N 59°20' E 018°05'0 0.0
2018-Dec-10 04:00N 59°20' E 018°05'0 0.0
2018-Dec-10 03:31N 59°20' E 018°05'0 0.0
2018-Dec-10 02:30N 59°20' E 018°05'0 0.0
2018-Dec-10 02:00N 59°20' E 018°05'0 0.0
2018-Dec-10 01:30N 59°20' E 018°05'0 0.0
2018-Dec-10 01:01N 59°20' E 018°05'0 0.0
2018-Dec-10 00:30N 59°20' E 018°05'0 0.0
2018-Dec-10 00:00N 59°20' E 018°05'0 0.0
2018-Dec-09 23:30N 59°20' E 018°05'0 0.0
2018-Dec-09 23:00N 59°20' E 018°05'0 0.0
2018-Dec-09 22:30N 59°20' E 018°05'0 0.0
2018-Dec-09 22:00N 59°20' E 018°05'0 0.0
2018-Dec-09 21:30N 59°20' E 018°05'0 0.0
2018-Dec-09 21:00N 59°20' E 018°05'0 0.1
2018-Dec-09 20:30N 59°20' E 018°05'611.3
2018-Dec-09 20:00N 59°22' E 018°15'510.0
2018-Dec-09 19:30N 59°25' E 018°22'713.5
2018-Dec-09 19:01N 59°23' E 018°34'4 7.1
2018-Dec-09 18:29N 59°25' E 018°28'4 7.9
2018-Dec-09 18:00N 59°24' E 018°21'5 9.6
2018-Dec-09 17:31N 59°21' E 018°14'510.2
2018-Dec-09 17:00N 59°20' E 018°04'0 0.0
2018-Dec-09 16:30N 59°20' E 018°04'0 0.0
2018-Dec-09 16:01N 59°20' E 018°04'3 6.4
2018-Dec-09 15:31N 59°20' E 018°11'612.3
2018-Dec-09 15:01N 59°22' E 018°22'3 6.1
2018-Dec-09 14:30N 59°25' E 018°22'4 7.7
2018-Dec-09 14:01N 59°28' E 018°27'3 0.9
2018-Dec-09 10:17N 59°30' E 018°32'2 7.3
2018-Dec-09 10:00N 59°28' E 018°29'4 7.3
2018-Dec-09 09:31N 59°27' E 018°23'4 8.4
2018-Dec-09 09:01N 59°23' E 018°20'4 8.6
2018-Dec-09 08:30N 59°21' E 018°13'5 9.1
2018-Dec-09 08:00N 59°20' E 018°05'0 0.0
2018-Dec-09 07:30N 59°20' E 018°05'0 0.0
2018-Dec-09 07:00N 59°20' E 018°05'0 0.0
2018-Dec-09 06:30N 59°20' E 018°05'0 0.0
2018-Dec-09 06:00N 59°20' E 018°05'0 0.0
2018-Dec-09 05:30N 59°20' E 018°05'0 0.0
2018-Dec-09 05:00N 59°20' E 018°05'0 0.0
2018-Dec-09 04:30N 59°20' E 018°05'0 0.0
2018-Dec-09 04:00N 59°20' E 018°05'0 0.0
2018-Dec-09 03:30N 59°20' E 018°05'0 0.0
2018-Dec-09 03:00N 59°20' E 018°05'0 0.0
2018-Dec-09 02:30N 59°20' E 018°05'0 0.0
2018-Dec-09 02:00N 59°20' E 018°05'0 0.0
2018-Dec-09 01:30N 59°20' E 018°05'0 0.0
2018-Dec-09 01:00N 59°20' E 018°05'0 0.0
2018-Dec-09 00:30N 59°20' E 018°05'0 0.0
2018-Dec-09 00:00N 59°20' E 018°05'0 0.0
2018-Dec-08 23:30N 59°20' E 018°05'0 0.0
2018-Dec-08 23:00N 59°20' E 018°05'0 0.0
2018-Dec-08 22:30N 59°20' E 018°05'0 0.0
2018-Dec-08 22:00N 59°20' E 018°05'0 0.0
2018-Dec-08 21:30N 59°20' E 018°05'0 0.0
2018-Dec-08 21:00N 59°20' E 018°05'0 0.0
2018-Dec-08 20:30N 59°20' E 018°05'0 0.0
2018-Dec-08 20:00N 59°20' E 018°05'0 0.0
2018-Dec-08 19:30N 59°20' E 018°05'0 0.0
2018-Dec-08 19:00N 59°20' E 018°05'0 0.0
2018-Dec-08 18:30N 59°20' E 018°05'0 0.6
2018-Dec-08 18:00N 59°19' E 018°05'510.4
2018-Dec-08 17:30N 59°21' E 018°14'4 9.0
2018-Dec-08 17:00N 59°24' E 018°21'4 7.3
2018-Dec-08 16:30N 59°27' E 018°27'2 4.4
2018-Dec-08 15:58N 59°28' E 018°30'3 7.3
2018-Dec-08 15:30N 59°27' E 018°23'3 6.4
2018-Dec-08 15:00N 59°24' E 018°21'1 1.1
2018-Dec-08 14:30N 59°25' E 018°21'5 8.7
2018-Dec-08 13:55N 59°25' E 018°31'4 9.4
2018-Dec-08 13:30N 59°23' E 018°38'2 4.1
2018-Dec-08 12:55N 59°23' E 018°42'3 6.2
2018-Dec-08 12:30N 59°24' E 018°47'3 5.6
2018-Dec-08 11:57N 59°24' E 018°53'0 0.0
2018-Dec-08 10:42N 59°24' E 018°53'0 0.3
2018-Dec-08 10:30N 59°24' E 018°53'3 6.0
2018-Dec-08 10:00N 59°23' E 018°48'2 4.7
2018-Dec-08 09:29N 59°22' E 018°43'2 4.8
2018-Dec-08 09:00N 59°23' E 018°39'610.6
2018-Dec-08 08:25N 59°25' E 018°27'3 7.4
2018-Dec-08 08:00N 59°25' E 018°22'510.1
2018-Dec-08 07:30N 59°21' E 018°14'510.3
2018-Dec-08 07:00N 59°20' E 018°05'0 0.0
2018-Dec-08 06:30N 59°20' E 018°05'0 0.0
2018-Dec-08 06:00N 59°20' E 018°05'0 0.0
2018-Dec-08 05:30N 59°20' E 018°05'0 0.0
2018-Dec-08 05:00N 59°20' E 018°05'0 0.0
2018-Dec-08 04:30N 59°20' E 018°05'0 0.0
2018-Dec-08 04:00N 59°20' E 018°05'0 0.0
2018-Dec-08 03:30N 59°20' E 018°05'0 0.0
2018-Dec-08 03:00N 59°20' E 018°05'0 0.0
2018-Dec-08 02:30N 59°20' E 018°05'0 0.0
2018-Dec-08 02:00N 59°20' E 018°05'0 0.0
2018-Dec-08 01:30N 59°20' E 018°05'0 0.0
2018-Dec-08 01:00N 59°20' E 018°05'0 0.0
2018-Dec-08 00:30N 59°20' E 018°05'0 0.0
2018-Dec-08 00:00N 59°20' E 018°05'0 0.0
2018-Dec-07 23:30N 59°20' E 018°05'0 0.0
2018-Dec-07 23:00N 59°20' E 018°05'0 0.0
2018-Dec-07 22:30N 59°20' E 018°05'0 0.0
2018-Dec-07 22:00N 59°20' E 018°05'0 0.0
2018-Dec-07 21:30N 59°20' E 018°05'0 0.0
2018-Dec-07 21:00N 59°20' E 018°05'0 0.0
2018-Dec-07 20:30N 59°20' E 018°05'0 0.0
2018-Dec-07 20:00N 59°20' E 018°05'0 0.0
2018-Dec-07 19:30N 59°20' E 018°05'0 0.0
2018-Dec-07 19:00N 59°20' E 018°05'0 0.0
2018-Dec-07 18:30N 59°20' E 018°05'0 0.0
2018-Dec-07 18:00N 59°20' E 018°05'0 0.0
2018-Dec-07 17:30N 59°20' E 018°05'0 0.0
2018-Dec-07 17:00N 59°20' E 018°05'0 0.0
2018-Dec-07 16:30N 59°20' E 018°05'0 0.0
2018-Dec-07 16:00N 59°20' E 018°05'0 0.0
2018-Dec-07 15:30N 59°20' E 018°05'0 0.0
2018-Dec-07 15:00N 59°20' E 018°05'0 0.0
2018-Dec-07 14:30N 59°20' E 018°05'0 0.0
2018-Dec-07 14:00N 59°20' E 018°05'0 0.0
2018-Dec-07 13:30N 59°20' E 018°05'0 0.0
2018-Dec-07 13:00N 59°20' E 018°05'0 0.0
2018-Dec-07 12:30N 59°20' E 018°05'0 0.0
2018-Dec-07 12:00N 59°20' E 018°05'0 0.0
2018-Dec-07 11:30N 59°20' E 018°05'0 0.0
2018-Dec-07 11:00N 59°20' E 018°05'0 0.0
2018-Dec-07 10:30N 59°20' E 018°05'0 0.0
2018-Dec-07 10:00N 59°20' E 018°05'0 0.0
2018-Dec-07 09:30N 59°20' E 018°05'0 0.0
2018-Dec-07 09:00N 59°20' E 018°05'0 0.0
2018-Dec-07 08:30N 59°20' E 018°05'0 0.0
2018-Dec-07 08:00N 59°20' E 018°05'0 0.0
2018-Dec-07 07:30N 59°20' E 018°05'0 0.0
2018-Dec-07 07:00N 59°20' E 018°05'4 7.9
2018-Dec-07 06:30N 59°20' E 018°12'4 8.6
2018-Dec-07 06:00N 59°23' E 018°19'2 3.8
2018-Dec-07 05:30N 59°24' E 018°23'0 0.6
2018-Dec-07 05:00N 59°24' E 018°22'1 1.1
2018-Dec-07 04:30N 59°24' E 018°21'0 0.0
2018-Dec-07 04:00N 59°24' E 018°21'0 0.0
2018-Dec-07 03:01N 59°24' E 018°21'0 0.0
2018-Dec-07 02:31N 59°24' E 018°21'0 0.0
2018-Dec-07 02:00N 59°24' E 018°21'0 0.0
2018-Dec-07 01:30N 59°24' E 018°21'0 0.0
2018-Dec-07 01:00N 59°24' E 018°21'0 0.0
2018-Dec-07 00:30N 59°24' E 018°21'0 0.0
2018-Dec-07 00:00N 59°24' E 018°21'0 0.0
2018-Dec-06 23:30N 59°24' E 018°21'0 0.0
2018-Dec-06 23:00N 59°24' E 018°21'0 0.0
2018-Dec-06 22:31N 59°24' E 018°21'0 0.0
2018-Dec-06 22:00N 59°24' E 018°21'0 0.0
2018-Dec-06 21:30N 59°24' E 018°21'0 0.0
2018-Dec-06 21:00N 59°24' E 018°21'0 0.0
2018-Dec-06 20:30N 59°24' E 018°21'0 0.0
2018-Dec-06 20:00N 59°24' E 018°21'0 0.0
2018-Dec-06 19:30N 59°24' E 018°21'0 0.0
2018-Dec-06 19:00N 59°24' E 018°21'0 0.2
2018-Dec-06 18:30N 59°24' E 018°21'1 1.5
2018-Dec-06 18:00N 59°24' E 018°23'2 3.2
2018-Dec-06 17:30N 59°23' E 018°20'4 9.0
2018-Dec-06 17:00N 59°20' E 018°13'4 8.5
2018-Dec-06 16:30N 59°20' E 018°04'0 0.1
2018-Dec-06 16:01N 59°20' E 018°05'0 0.0
2018-Dec-06 15:31N 59°20' E 018°05'0 0.0
2018-Dec-06 15:00N 59°20' E 018°05'0 0.0
2018-Dec-06 14:30N 59°20' E 018°05'0 0.0
2018-Dec-06 14:00N 59°20' E 018°05'0 0.0
2018-Dec-06 13:30N 59°20' E 018°05'0 0.0
2018-Dec-06 13:00N 59°20' E 018°05'0 0.0
2018-Dec-06 12:30N 59°20' E 018°05'0 0.0
2018-Dec-06 12:00N 59°20' E 018°05'0 0.0
2018-Dec-06 11:30N 59°20' E 018°05'0 0.0
2018-Dec-06 11:00N 59°20' E 018°05'0 0.0
2018-Dec-06 10:30N 59°20' E 018°05'0 0.0
2018-Dec-06 10:01N 59°20' E 018°05'0 0.0
2018-Dec-06 09:30N 59°20' E 018°05'0 0.6
2018-Dec-06 09:00N 59°19' E 018°05'510.5
2018-Dec-06 08:30N 59°21' E 018°14'5 9.1
2018-Dec-06 08:00N 59°24' E 018°21'2 4.9
2018-Dec-06 07:30N 59°26' E 018°25'611.9
2018-Dec-06 07:01N 59°23' E 018°36'5 9.2
2018-Dec-06 06:30N 59°23' E 018°45'2 4.0
2018-Dec-06 06:00N 59°23' E 018°49'3 5.7
2018-Dec-06 05:29N 59°25' E 018°54'2 0.2
2018-Dec-05 17:13N 59°23' E 018°51'1 6.2
2018-Dec-05 17:00N 59°23' E 018°48'3 6.7
2018-Dec-05 16:30N 59°23' E 018°42'3 5.4
2018-Dec-05 16:00N 59°22' E 018°36'0 0.0
2018-Dec-05 15:30N 59°22' E 018°36'0 0.0
2018-Dec-05 15:00N 59°22' E 018°36'3 7.0
2018-Dec-05 14:30N 59°24' E 018°42'2 3.9
2018-Dec-05 14:00N 59°23' E 018°46'2 3.6
2018-Dec-05 13:30N 59°23' E 018°50'2 1.0
2018-Dec-05 11:17N 59°24' E 018°53'  

Dump ship's entire track history